sensor_id;sensor_type;location;lat;lon;timestamp;P1;durP1;ratioP1;P2;durP2;ratioP2
9970;SDS011;5026;51.494;11.974;2023-07-20T00:00:14;5.05;;;2.72;;
9970;SDS011;5026;51.494;11.974;2023-07-20T00:02:42;6.60;;;2.63;;
9970;SDS011;5026;51.494;11.974;2023-07-20T00:05:09;4.40;;;2.67;;
9970;SDS011;5026;51.494;11.974;2023-07-20T00:07:36;5.53;;;3.30;;
9970;SDS011;5026;51.494;11.974;2023-07-20T00:10:03;3.00;;;2.70;;
9970;SDS011;5026;51.494;11.974;2023-07-20T00:12:31;4.90;;;3.13;;
9970;SDS011;5026;51.494;11.974;2023-07-20T00:14:57;5.32;;;2.80;;
9970;SDS011;5026;51.494;11.974;2023-07-20T00:17:24;3.95;;;2.50;;
9970;SDS011;5026;51.494;11.974;2023-07-20T00:19:53;3.47;;;2.60;;
9970;SDS011;5026;51.494;11.974;2023-07-20T00:22:19;5.60;;;2.80;;
9970;SDS011;5026;51.494;11.974;2023-07-20T00:24:47;3.10;;;2.80;;
9970;SDS011;5026;51.494;11.974;2023-07-20T00:27:14;3.58;;;2.60;;
9970;SDS011;5026;51.494;11.974;2023-07-20T00:29:41;3.17;;;2.50;;
9970;SDS011;5026;51.494;11.974;2023-07-20T00:32:08;5.22;;;2.97;;
9970;SDS011;5026;51.494;11.974;2023-07-20T00:34:35;3.97;;;2.40;;
9970;SDS011;5026;51.494;11.974;2023-07-20T00:37:04;4.63;;;2.85;;
9970;SDS011;5026;51.494;11.974;2023-07-20T00:39:31;3.78;;;2.85;;
9970;SDS011;5026;51.494;11.974;2023-07-20T00:41:58;4.25;;;2.42;;
9970;SDS011;5026;51.494;11.974;2023-07-20T00:44:25;5.72;;;2.83;;
9970;SDS011;5026;51.494;11.974;2023-07-20T00:46:52;6.45;;;3.10;;
9970;SDS011;5026;51.494;11.974;2023-07-20T00:49:19;3.13;;;2.70;;
9970;SDS011;5026;51.494;11.974;2023-07-20T00:51:47;3.42;;;2.40;;
9970;SDS011;5026;51.494;11.974;2023-07-20T00:54:16;4.00;;;2.80;;
9970;SDS011;5026;51.494;11.974;2023-07-20T00:56:43;5.93;;;2.88;;
9970;SDS011;5026;51.494;11.974;2023-07-20T00:59:11;3.45;;;2.67;;
9970;SDS011;5026;51.494;11.974;2023-07-20T01:01:38;3.08;;;2.60;;
9970;SDS011;5026;51.494;11.974;2023-07-20T01:04:04;3.97;;;2.45;;
9970;SDS011;5026;51.494;11.974;2023-07-20T01:06:34;3.75;;;2.33;;
9970;SDS011;5026;51.494;11.974;2023-07-20T01:09:11;6.90;;;2.90;;
9970;SDS011;5026;51.494;11.974;2023-07-20T01:11:46;3.47;;;2.90;;
9970;SDS011;5026;51.494;11.974;2023-07-20T01:14:21;3.45;;;2.30;;
9970;SDS011;5026;51.494;11.974;2023-07-20T01:16:50;5.95;;;2.70;;
9970;SDS011;5026;51.494;11.974;2023-07-20T01:19:18;3.75;;;3.00;;
9970;SDS011;5026;51.494;11.974;2023-07-20T01:21:47;5.47;;;2.88;;
9970;SDS011;5026;51.494;11.974;2023-07-20T01:33:26;5.95;;;2.92;;
9970;SDS011;5026;51.494;11.974;2023-07-20T01:35:57;4.03;;;3.05;;
9970;SDS011;5026;51.494;11.974;2023-07-20T01:38:26;4.43;;;2.80;;
9970;SDS011;5026;51.494;11.974;2023-07-20T01:40:53;3.38;;;3.08;;
9970;SDS011;5026;51.494;11.974;2023-07-20T01:43:21;3.55;;;2.60;;
9970;SDS011;5026;51.494;11.974;2023-07-20T01:45:48;4.07;;;2.83;;
9970;SDS011;5026;51.494;11.974;2023-07-20T01:48:15;3.45;;;2.75;;
9970;SDS011;5026;51.494;11.974;2023-07-20T01:50:44;4.82;;;3.10;;
9970;SDS011;5026;51.494;11.974;2023-07-20T01:53:11;3.65;;;2.53;;
9970;SDS011;5026;51.494;11.974;2023-07-20T01:55:38;4.88;;;2.95;;
9970;SDS011;5026;51.494;11.974;2023-07-20T01:58:04;5.30;;;2.80;;
9970;SDS011;5026;51.494;11.974;2023-07-20T02:00:31;3.95;;;2.75;;
9970;SDS011;5026;51.494;11.974;2023-07-20T02:02:58;3.08;;;2.72;;
9970;SDS011;5026;51.494;11.974;2023-07-20T02:05:25;3.45;;;2.85;;
9970;SDS011;5026;51.494;11.974;2023-07-20T02:07:54;6.25;;;2.97;;
9970;SDS011;5026;51.494;11.974;2023-07-20T02:10:21;4.30;;;2.95;;
9970;SDS011;5026;51.494;11.974;2023-07-20T02:12:48;8.05;;;3.05;;
9970;SDS011;5026;51.494;11.974;2023-07-20T02:15:15;5.50;;;2.72;;
9970;SDS011;5026;51.494;11.974;2023-07-20T02:17:43;5.38;;;3.33;;
9970;SDS011;5026;51.494;11.974;2023-07-20T02:20:11;7.07;;;3.35;;
9970;SDS011;5026;51.494;11.974;2023-07-20T02:22:39;8.27;;;3.40;;
9970;SDS011;5026;51.494;11.974;2023-07-20T02:25:08;5.65;;;3.22;;
9970;SDS011;5026;51.494;11.974;2023-07-20T02:27:36;3.75;;;3.00;;
9970;SDS011;5026;51.494;11.974;2023-07-20T02:30:04;3.67;;;3.00;;
9970;SDS011;5026;51.494;11.974;2023-07-20T02:32:31;3.67;;;2.90;;
9970;SDS011;5026;51.494;11.974;2023-07-20T02:34:58;4.13;;;3.17;;
9970;SDS011;5026;51.494;11.974;2023-07-20T02:37:25;4.18;;;3.58;;
9970;SDS011;5026;51.494;11.974;2023-07-20T02:39:52;3.05;;;2.85;;
9970;SDS011;5026;51.494;11.974;2023-07-20T02:42:20;5.82;;;3.22;;
9970;SDS011;5026;51.494;11.974;2023-07-20T02:44:49;4.90;;;2.90;;
9970;SDS011;5026;51.494;11.974;2023-07-20T02:47:16;4.28;;;3.15;;
9970;SDS011;5026;51.494;11.974;2023-07-20T02:49:43;10.98;;;3.42;;
9970;SDS011;5026;51.494;11.974;2023-07-20T02:52:10;6.75;;;3.25;;
9970;SDS011;5026;51.494;11.974;2023-07-20T02:54:37;7.80;;;3.40;;
9970;SDS011;5026;51.494;11.974;2023-07-20T02:57:05;6.03;;;3.53;;
9970;SDS011;5026;51.494;11.974;2023-07-20T02:59:33;8.10;;;3.50;;
9970;SDS011;5026;51.494;11.974;2023-07-20T03:02:00;7.43;;;3.35;;
9970;SDS011;5026;51.494;11.974;2023-07-20T03:04:27;4.05;;;3.20;;
9970;SDS011;5026;51.494;11.974;2023-07-20T03:06:54;4.53;;;3.55;;
9970;SDS011;5026;51.494;11.974;2023-07-20T03:09:21;7.85;;;3.67;;
9970;SDS011;5026;51.494;11.974;2023-07-20T03:11:48;7.20;;;3.88;;
9970;SDS011;5026;51.494;11.974;2023-07-20T03:14:16;7.00;;;3.60;;
9970;SDS011;5026;51.494;11.974;2023-07-20T03:16:44;7.32;;;3.72;;
9970;SDS011;5026;51.494;11.974;2023-07-20T03:19:11;6.88;;;3.83;;
9970;SDS011;5026;51.494;11.974;2023-07-20T03:21:38;5.55;;;3.55;;
9970;SDS011;5026;51.494;11.974;2023-07-20T03:24:06;5.25;;;3.60;;
9970;SDS011;5026;51.494;11.974;2023-07-20T03:26:33;4.20;;;3.80;;
9970;SDS011;5026;51.494;11.974;2023-07-20T03:29:00;8.50;;;4.00;;
9970;SDS011;5026;51.494;11.974;2023-07-20T03:31:28;4.97;;;3.75;;
9970;SDS011;5026;51.494;11.974;2023-07-20T03:33:56;6.28;;;4.07;;
9970;SDS011;5026;51.494;11.974;2023-07-20T03:36:23;7.68;;;4.35;;
9970;SDS011;5026;51.494;11.974;2023-07-20T03:38:50;5.60;;;3.75;;
9970;SDS011;5026;51.494;11.974;2023-07-20T03:41:17;6.32;;;3.92;;
9970;SDS011;5026;51.494;11.974;2023-07-20T03:43:45;8.48;;;4.07;;
9970;SDS011;5026;51.494;11.974;2023-07-20T03:46:12;9.75;;;4.32;;
9970;SDS011;5026;51.494;11.974;2023-07-20T03:48:39;9.00;;;4.18;;
9970;SDS011;5026;51.494;11.974;2023-07-20T03:51:07;5.97;;;4.00;;
9970;SDS011;5026;51.494;11.974;2023-07-20T03:53:34;4.72;;;4.20;;
9970;SDS011;5026;51.494;11.974;2023-07-20T03:56:01;11.48;;;4.20;;
9970;SDS011;5026;51.494;11.974;2023-07-20T03:58:28;8.65;;;3.92;;
9970;SDS011;5026;51.494;11.974;2023-07-20T04:00:57;4.75;;;4.20;;
9970;SDS011;5026;51.494;11.974;2023-07-20T04:03:23;6.55;;;3.97;;
9970;SDS011;5026;51.494;11.974;2023-07-20T04:05:52;7.32;;;4.03;;
9970;SDS011;5026;51.494;11.974;2023-07-20T04:08:22;5.97;;;4.45;;
9970;SDS011;5026;51.494;11.974;2023-07-20T04:10:49;6.03;;;3.65;;
9970;SDS011;5026;51.494;11.974;2023-07-20T04:13:16;6.80;;;4.10;;
9970;SDS011;5026;51.494;11.974;2023-07-20T04:15:44;9.50;;;4.03;;
9970;SDS011;5026;51.494;11.974;2023-07-20T04:18:10;6.78;;;3.83;;
9970;SDS011;5026;51.494;11.974;2023-07-20T04:20:38;5.90;;;3.97;;
9970;SDS011;5026;51.494;11.974;2023-07-20T04:23:04;7.53;;;3.60;;
9970;SDS011;5026;51.494;11.974;2023-07-20T04:25:33;11.43;;;4.32;;
9970;SDS011;5026;51.494;11.974;2023-07-20T04:28:04;9.77;;;4.15;;
9970;SDS011;5026;51.494;11.974;2023-07-20T04:30:33;11.07;;;4.32;;
9970;SDS011;5026;51.494;11.974;2023-07-20T04:33:01;6.95;;;4.00;;
9970;SDS011;5026;51.494;11.974;2023-07-20T04:38:15;7.57;;;3.78;;
9970;SDS011;5026;51.494;11.974;2023-07-20T04:40:44;8.25;;;3.55;;
9970;SDS011;5026;51.494;11.974;2023-07-20T04:43:11;7.40;;;3.65;;
9970;SDS011;5026;51.494;11.974;2023-07-20T04:45:39;8.80;;;3.92;;
9970;SDS011;5026;51.494;11.974;2023-07-20T04:48:08;9.73;;;3.60;;
9970;SDS011;5026;51.494;11.974;2023-07-20T04:50:36;10.98;;;4.00;;
9970;SDS011;5026;51.494;11.974;2023-07-20T04:53:03;7.18;;;3.63;;
9970;SDS011;5026;51.494;11.974;2023-07-20T04:55:30;7.93;;;3.25;;
9970;SDS011;5026;51.494;11.974;2023-07-20T04:58:00;5.90;;;3.30;;
9970;SDS011;5026;51.494;11.974;2023-07-20T05:00:27;9.52;;;3.38;;
9970;SDS011;5026;51.494;11.974;2023-07-20T05:02:54;6.32;;;4.20;;
9970;SDS011;5026;51.494;11.974;2023-07-20T05:05:21;7.97;;;4.57;;
9970;SDS011;5026;51.494;11.974;2023-07-20T05:07:48;6.03;;;3.30;;
9970;SDS011;5026;51.494;11.974;2023-07-20T05:10:15;4.65;;;3.58;;
9970;SDS011;5026;51.494;11.974;2023-07-20T05:12:41;10.02;;;3.90;;
9970;SDS011;5026;51.494;11.974;2023-07-20T05:15:10;6.80;;;3.72;;
9970;SDS011;5026;51.494;11.974;2023-07-20T05:17:37;4.47;;;3.70;;
9970;SDS011;5026;51.494;11.974;2023-07-20T05:20:05;7.85;;;3.60;;
9970;SDS011;5026;51.494;11.974;2023-07-20T05:22:34;6.10;;;3.70;;
9970;SDS011;5026;51.494;11.974;2023-07-20T05:25:05;5.18;;;3.70;;
9970;SDS011;5026;51.494;11.974;2023-07-20T05:27:32;4.38;;;3.70;;
9970;SDS011;5026;51.494;11.974;2023-07-20T05:29:59;4.07;;;3.67;;
9970;SDS011;5026;51.494;11.974;2023-07-20T05:32:28;9.40;;;3.47;;
9970;SDS011;5026;51.494;11.974;2023-07-20T05:34:55;7.82;;;3.50;;
9970;SDS011;5026;51.494;11.974;2023-07-20T05:37:22;5.80;;;3.60;;
9970;SDS011;5026;51.494;11.974;2023-07-20T05:39:49;7.70;;;3.50;;
9970;SDS011;5026;51.494;11.974;2023-07-20T05:42:16;8.43;;;3.53;;
9970;SDS011;5026;51.494;11.974;2023-07-20T05:44:43;6.97;;;3.42;;
9970;SDS011;5026;51.494;11.974;2023-07-20T05:47:10;4.68;;;3.00;;
9970;SDS011;5026;51.494;11.974;2023-07-20T05:49:38;7.47;;;3.45;;
9970;SDS011;5026;51.494;11.974;2023-07-20T05:52:05;14.48;;;3.60;;
9970;SDS011;5026;51.494;11.974;2023-07-20T05:54:32;5.40;;;3.65;;
9970;SDS011;5026;51.494;11.974;2023-07-20T05:57:00;5.55;;;3.55;;
9970;SDS011;5026;51.494;11.974;2023-07-20T05:59:27;8.07;;;3.20;;
9970;SDS011;5026;51.494;11.974;2023-07-20T06:01:55;8.13;;;3.10;;
9970;SDS011;5026;51.494;11.974;2023-07-20T06:04:22;6.57;;;3.40;;
9970;SDS011;5026;51.494;11.974;2023-07-20T06:06:51;4.45;;;2.70;;
9970;SDS011;5026;51.494;11.974;2023-07-20T06:09:18;8.05;;;2.92;;
9970;SDS011;5026;51.494;11.974;2023-07-20T06:11:44;8.55;;;2.70;;
9970;SDS011;5026;51.494;11.974;2023-07-20T06:14:11;7.30;;;2.70;;
9970;SDS011;5026;51.494;11.974;2023-07-20T06:16:38;5.32;;;2.38;;
9970;SDS011;5026;51.494;11.974;2023-07-20T06:19:05;5.90;;;2.45;;
9970;SDS011;5026;51.494;11.974;2023-07-20T06:21:32;8.05;;;2.92;;
9970;SDS011;5026;51.494;11.974;2023-07-20T06:24:01;8.75;;;3.53;;
9970;SDS011;5026;51.494;11.974;2023-07-20T06:26:28;5.05;;;2.80;;
9970;SDS011;5026;51.494;11.974;2023-07-20T06:28:55;5.20;;;2.80;;
9970;SDS011;5026;51.494;11.974;2023-07-20T06:31:22;5.88;;;2.88;;
9970;SDS011;5026;51.494;11.974;2023-07-20T06:33:49;7.22;;;2.63;;
9970;SDS011;5026;51.494;11.974;2023-07-20T06:36:16;4.07;;;2.42;;
9970;SDS011;5026;51.494;11.974;2023-07-20T06:38:44;7.45;;;2.65;;
9970;SDS011;5026;51.494;11.974;2023-07-20T06:41:12;6.47;;;3.20;;
9970;SDS011;5026;51.494;11.974;2023-07-20T06:43:39;5.53;;;2.80;;
9970;SDS011;5026;51.494;11.974;2023-07-20T06:46:06;4.43;;;2.63;;
9970;SDS011;5026;51.494;11.974;2023-07-20T06:48:32;6.70;;;2.70;;
9970;SDS011;5026;51.494;11.974;2023-07-20T06:50:59;8.73;;;4.57;;
9970;SDS011;5026;51.494;11.974;2023-07-20T06:53:26;3.47;;;2.63;;
9970;SDS011;5026;51.494;11.974;2023-07-20T06:55:53;9.20;;;3.13;;
9970;SDS011;5026;51.494;11.974;2023-07-20T06:58:23;4.90;;;2.92;;
9970;SDS011;5026;51.494;11.974;2023-07-20T07:00:50;7.43;;;2.92;;
9970;SDS011;5026;51.494;11.974;2023-07-20T07:03:17;8.05;;;2.80;;
9970;SDS011;5026;51.494;11.974;2023-07-20T07:05:44;7.53;;;2.90;;
9970;SDS011;5026;51.494;11.974;2023-07-20T07:08:11;5.03;;;3.10;;
9970;SDS011;5026;51.494;11.974;2023-07-20T07:10:38;6.38;;;3.22;;
9970;SDS011;5026;51.494;11.974;2023-07-20T07:13:05;5.57;;;3.60;;
9970;SDS011;5026;51.494;11.974;2023-07-20T07:18:02;6.25;;;3.30;;
9970;SDS011;5026;51.494;11.974;2023-07-20T07:20:29;4.38;;;3.30;;
9970;SDS011;5026;51.494;11.974;2023-07-20T07:22:56;7.32;;;3.63;;
9970;SDS011;5026;51.494;11.974;2023-07-20T07:25:23;4.47;;;2.90;;
9970;SDS011;5026;51.494;11.974;2023-07-20T07:27:51;6.30;;;2.83;;
9970;SDS011;5026;51.494;11.974;2023-07-20T07:30:18;6.10;;;2.97;;
9970;SDS011;5026;51.494;11.974;2023-07-20T07:32:46;4.63;;;2.88;;
9970;SDS011;5026;51.494;11.974;2023-07-20T07:35:14;2.90;;;2.70;;
9970;SDS011;5026;51.494;11.974;2023-07-20T07:37:41;3.97;;;3.13;;
9970;SDS011;5026;51.494;11.974;2023-07-20T07:40:08;3.90;;;2.70;;
9970;SDS011;5026;51.494;11.974;2023-07-20T07:42:35;3.85;;;2.97;;
9970;SDS011;5026;51.494;11.974;2023-07-20T07:45:02;7.75;;;3.00;;
9970;SDS011;5026;51.494;11.974;2023-07-20T07:47:30;6.43;;;3.13;;
9970;SDS011;5026;51.494;11.974;2023-07-20T07:49:58;3.60;;;3.25;;
9970;SDS011;5026;51.494;11.974;2023-07-20T07:52:25;5.10;;;3.10;;
9970;SDS011;5026;51.494;11.974;2023-07-20T07:54:52;4.63;;;3.30;;
9970;SDS011;5026;51.494;11.974;2023-07-20T07:57:18;7.25;;;3.90;;
9970;SDS011;5026;51.494;11.974;2023-07-20T07:59:45;7.70;;;4.38;;
9970;SDS011;5026;51.494;11.974;2023-07-20T08:02:12;4.20;;;3.90;;
9970;SDS011;5026;51.494;11.974;2023-07-20T08:04:39;4.65;;;3.88;;
9970;SDS011;5026;51.494;11.974;2023-07-20T08:07:07;5.10;;;4.55;;
9970;SDS011;5026;51.494;11.974;2023-07-20T08:09:34;4.43;;;3.80;;
9970;SDS011;5026;51.494;11.974;2023-07-20T08:12:01;4.40;;;3.50;;
9970;SDS011;5026;51.494;11.974;2023-07-20T08:14:29;3.83;;;3.15;;
9970;SDS011;5026;51.494;11.974;2023-07-20T08:16:56;4.05;;;3.65;;
9970;SDS011;5026;51.494;11.974;2023-07-20T08:19:23;3.78;;;3.28;;
9970;SDS011;5026;51.494;11.974;2023-07-20T08:21:51;4.38;;;2.85;;
9970;SDS011;5026;51.494;11.974;2023-07-20T08:24:19;4.90;;;3.03;;
9970;SDS011;5026;51.494;11.974;2023-07-20T08:26:46;2.92;;;2.72;;
9970;SDS011;5026;51.494;11.974;2023-07-20T08:29:13;3.95;;;2.90;;
9970;SDS011;5026;51.494;11.974;2023-07-20T08:31:40;3.30;;;3.00;;
9970;SDS011;5026;51.494;11.974;2023-07-20T08:34:06;3.83;;;2.72;;
9970;SDS011;5026;51.494;11.974;2023-07-20T08:36:33;5.28;;;3.75;;
9970;SDS011;5026;51.494;11.974;2023-07-20T08:39:01;4.50;;;4.20;;
9970;SDS011;5026;51.494;11.974;2023-07-20T08:41:30;7.30;;;3.75;;
9970;SDS011;5026;51.494;11.974;2023-07-20T08:43:57;4.25;;;3.50;;
9970;SDS011;5026;51.494;11.974;2023-07-20T08:46:25;6.78;;;3.60;;
9970;SDS011;5026;51.494;11.974;2023-07-20T08:48:53;5.22;;;4.38;;
9970;SDS011;5026;51.494;11.974;2023-07-20T08:51:22;7.80;;;4.05;;
9970;SDS011;5026;51.494;11.974;2023-07-20T08:53:51;5.13;;;4.38;;
9970;SDS011;5026;51.494;11.974;2023-07-20T08:56:20;5.88;;;3.25;;
9970;SDS011;5026;51.494;11.974;2023-07-20T08:58:48;3.90;;;3.10;;
9970;SDS011;5026;51.494;11.974;2023-07-20T09:01:15;4.18;;;3.58;;
9970;SDS011;5026;51.494;11.974;2023-07-20T09:03:44;6.35;;;3.85;;
9970;SDS011;5026;51.494;11.974;2023-07-20T09:06:12;13.18;;;3.85;;
9970;SDS011;5026;51.494;11.974;2023-07-20T09:08:38;6.60;;;4.03;;
9970;SDS011;5026;51.494;11.974;2023-07-20T09:11:06;6.22;;;4.32;;
9970;SDS011;5026;51.494;11.974;2023-07-20T09:13:33;4.82;;;4.30;;
9970;SDS011;5026;51.494;11.974;2023-07-20T09:16:02;5.55;;;4.70;;
9970;SDS011;5026;51.494;11.974;2023-07-20T09:18:30;7.57;;;4.40;;
9970;SDS011;5026;51.494;11.974;2023-07-20T09:20:58;5.78;;;4.72;;
9970;SDS011;5026;51.494;11.974;2023-07-20T09:23:29;8.23;;;4.90;;
9970;SDS011;5026;51.494;11.974;2023-07-20T09:25:57;8.30;;;4.95;;
9970;SDS011;5026;51.494;11.974;2023-07-20T09:28:24;6.57;;;4.72;;
9970;SDS011;5026;51.494;11.974;2023-07-20T09:30:52;4.82;;;4.40;;
9970;SDS011;5026;51.494;11.974;2023-07-20T09:33:23;10.35;;;6.20;;
9970;SDS011;5026;51.494;11.974;2023-07-20T09:35:50;10.48;;;5.80;;
9970;SDS011;5026;51.494;11.974;2023-07-20T09:38:17;7.82;;;5.47;;
9970;SDS011;5026;51.494;11.974;2023-07-20T09:40:44;7.72;;;5.15;;
9970;SDS011;5026;51.494;11.974;2023-07-20T09:43:11;7.13;;;4.70;;
9970;SDS011;5026;51.494;11.974;2023-07-20T09:45:41;4.93;;;4.00;;
9970;SDS011;5026;51.494;11.974;2023-07-20T09:48:10;4.15;;;3.70;;
9970;SDS011;5026;51.494;11.974;2023-07-20T09:50:42;6.05;;;3.30;;
9970;SDS011;5026;51.494;11.974;2023-07-20T09:53:14;6.50;;;2.90;;
9970;SDS011;5026;51.494;11.974;2023-07-20T09:55:43;3.22;;;2.72;;
9970;SDS011;5026;51.494;11.974;2023-07-20T09:58:11;3.25;;;2.90;;
9970;SDS011;5026;51.494;11.974;2023-07-20T10:00:39;3.90;;;3.05;;
9970;SDS011;5026;51.494;11.974;2023-07-20T10:03:08;3.13;;;2.92;;
9970;SDS011;5026;51.494;11.974;2023-07-20T10:05:39;3.13;;;2.88;;
9970;SDS011;5026;51.494;11.974;2023-07-20T10:08:11;3.13;;;2.88;;
9970;SDS011;5026;51.494;11.974;2023-07-20T10:10:40;4.57;;;3.33;;
9970;SDS011;5026;51.494;11.974;2023-07-20T10:13:09;4.88;;;2.85;;
9970;SDS011;5026;51.494;11.974;2023-07-20T10:15:42;3.00;;;2.80;;
9970;SDS011;5026;51.494;11.974;2023-07-20T10:18:12;5.75;;;3.00;;
9970;SDS011;5026;51.494;11.974;2023-07-20T10:20:45;3.78;;;2.88;;
9970;SDS011;5026;51.494;11.974;2023-07-20T10:23:14;3.25;;;2.53;;
9970;SDS011;5026;51.494;11.974;2023-07-20T10:25:42;3.38;;;2.55;;
9970;SDS011;5026;51.494;11.974;2023-07-20T10:28:10;4.70;;;2.88;;
9970;SDS011;5026;51.494;11.974;2023-07-20T10:30:37;5.00;;;2.80;;
9970;SDS011;5026;51.494;11.974;2023-07-20T10:33:05;4.75;;;3.15;;
9970;SDS011;5026;51.494;11.974;2023-07-20T10:38:20;2.75;;;2.55;;
9970;SDS011;5026;51.494;11.974;2023-07-20T10:41:04;3.08;;;2.88;;
9970;SDS011;5026;51.494;11.974;2023-07-20T10:43:42;3.53;;;3.22;;
9970;SDS011;5026;51.494;11.974;2023-07-20T10:46:09;3.50;;;3.20;;
9970;SDS011;5026;51.494;11.974;2023-07-20T10:48:58;4.03;;;3.63;;
9970;SDS011;5026;51.494;11.974;2023-07-20T10:51:26;3.88;;;3.50;;
9970;SDS011;5026;51.494;11.974;2023-07-20T10:53:54;2.85;;;2.65;;
9970;SDS011;5026;51.494;11.974;2023-07-20T10:56:24;3.05;;;2.38;;
9970;SDS011;5026;51.494;11.974;2023-07-20T10:58:55;3.10;;;2.58;;
9970;SDS011;5026;51.494;11.974;2023-07-20T11:01:27;1.80;;;1.70;;
9970;SDS011;5026;51.494;11.974;2023-07-20T11:03:56;1.52;;;1.42;;
9970;SDS011;5026;51.494;11.974;2023-07-20T11:06:31;2.00;;;1.90;;
9970;SDS011;5026;51.494;11.974;2023-07-20T11:09:05;1.60;;;1.50;;
9970;SDS011;5026;51.494;11.974;2023-07-20T11:11:39;1.27;;;1.08;;
9970;SDS011;5026;51.494;11.974;2023-07-20T11:14:08;1.60;;;1.00;;
9970;SDS011;5026;51.494;11.974;2023-07-20T11:16:39;3.60;;;0.90;;
9970;SDS011;5026;51.494;11.974;2023-07-20T11:19:14;0.95;;;0.70;;
9970;SDS011;5026;51.494;11.974;2023-07-20T11:21:43;0.60;;;0.60;;
9970;SDS011;5026;51.494;11.974;2023-07-20T11:24:12;2.05;;;0.77;;
9970;SDS011;5026;51.494;11.974;2023-07-20T11:26:40;1.20;;;0.70;;
9970;SDS011;5026;51.494;11.974;2023-07-20T11:29:08;0.60;;;0.60;;
9970;SDS011;5026;51.494;11.974;2023-07-20T11:31:35;1.42;;;0.77;;
9970;SDS011;5026;51.494;11.974;2023-07-20T11:34:03;1.10;;;0.75;;
9970;SDS011;5026;51.494;11.974;2023-07-20T11:36:30;1.73;;;0.60;;
9970;SDS011;5026;51.494;11.974;2023-07-20T11:38:57;0.60;;;0.60;;
9970;SDS011;5026;51.494;11.974;2023-07-20T11:41:25;3.05;;;0.75;;
9970;SDS011;5026;51.494;11.974;2023-07-20T11:43:53;0.80;;;0.60;;
9970;SDS011;5026;51.494;11.974;2023-07-20T11:46:21;0.75;;;0.43;;
9970;SDS011;5026;51.494;11.974;2023-07-20T11:48:48;1.98;;;0.52;;
9970;SDS011;5026;51.494;11.974;2023-07-20T11:51:15;1.02;;;0.75;;
9970;SDS011;5026;51.494;11.974;2023-07-20T11:53:42;0.80;;;0.80;;
9970;SDS011;5026;51.494;11.974;2023-07-20T11:56:11;0.90;;;0.90;;
9970;SDS011;5026;51.494;11.974;2023-07-20T11:58:43;1.25;;;1.15;;
9970;SDS011;5026;51.494;11.974;2023-07-20T12:01:11;1.05;;;1.05;;
9970;SDS011;5026;51.494;11.974;2023-07-20T12:03:38;1.70;;;1.60;;
9970;SDS011;5026;51.494;11.974;2023-07-20T12:06:06;3.55;;;2.08;;
9970;SDS011;5026;51.494;11.974;2023-07-20T12:08:34;1.75;;;1.60;;
9970;SDS011;5026;51.494;11.974;2023-07-20T12:11:01;1.60;;;1.50;;
9970;SDS011;5026;51.494;11.974;2023-07-20T12:13:35;2.00;;;1.80;;
9970;SDS011;5026;51.494;11.974;2023-07-20T12:16:08;1.67;;;1.58;;
9970;SDS011;5026;51.494;11.974;2023-07-20T12:18:36;1.95;;;1.85;;
9970;SDS011;5026;51.494;11.974;2023-07-20T12:21:03;2.58;;;2.38;;
9970;SDS011;5026;51.494;11.974;2023-07-20T12:23:36;1.88;;;1.73;;
9970;SDS011;5026;51.494;11.974;2023-07-20T12:26:07;2.00;;;1.88;;
9970;SDS011;5026;51.494;11.974;2023-07-20T12:28:38;2.30;;;2.20;;
9970;SDS011;5026;51.494;11.974;2023-07-20T12:31:08;2.50;;;2.20;;
9970;SDS011;5026;51.494;11.974;2023-07-20T12:33:36;2.50;;;2.20;;
9970;SDS011;5026;51.494;11.974;2023-07-20T12:36:03;2.38;;;2.28;;
9970;SDS011;5026;51.494;11.974;2023-07-20T12:38:31;2.60;;;2.15;;
9970;SDS011;5026;51.494;11.974;2023-07-20T12:40:59;2.63;;;2.42;;
9970;SDS011;5026;51.494;11.974;2023-07-20T12:43:27;3.75;;;2.85;;
9970;SDS011;5026;51.494;11.974;2023-07-20T12:45:54;3.08;;;2.88;;
9970;SDS011;5026;51.494;11.974;2023-07-20T12:48:23;3.42;;;3.13;;
9970;SDS011;5026;51.494;11.974;2023-07-20T12:50:50;3.80;;;3.50;;
9970;SDS011;5026;51.494;11.974;2023-07-20T12:53:17;3.40;;;3.10;;
9970;SDS011;5026;51.494;11.974;2023-07-20T12:55:44;3.17;;;2.97;;
9970;SDS011;5026;51.494;11.974;2023-07-20T12:58:11;2.97;;;2.78;;
9970;SDS011;5026;51.494;11.974;2023-07-20T13:00:39;3.28;;;3.08;;
9970;SDS011;5026;51.494;11.974;2023-07-20T13:03:06;2.88;;;2.63;;
9970;SDS011;5026;51.494;11.974;2023-07-20T13:05:35;3.47;;;2.95;;
9970;SDS011;5026;51.494;11.974;2023-07-20T13:08:02;3.10;;;2.90;;
9970;SDS011;5026;51.494;11.974;2023-07-20T13:10:30;3.15;;;2.90;;
9970;SDS011;5026;51.494;11.974;2023-07-20T13:12:57;3.33;;;3.13;;
9970;SDS011;5026;51.494;11.974;2023-07-20T13:15:24;3.40;;;3.10;;
9970;SDS011;5026;51.494;11.974;2023-07-20T13:17:57;3.63;;;3.33;;
9970;SDS011;5026;51.494;11.974;2023-07-20T13:20:25;2.70;;;2.50;;
9970;SDS011;5026;51.494;11.974;2023-07-20T13:22:54;3.00;;;2.80;;
9970;SDS011;5026;51.494;11.974;2023-07-20T13:25:21;2.70;;;2.50;;
9970;SDS011;5026;51.494;11.974;2023-07-20T13:27:48;3.65;;;2.83;;
9970;SDS011;5026;51.494;11.974;2023-07-20T13:30:15;2.63;;;2.42;;
9970;SDS011;5026;51.494;11.974;2023-07-20T13:32:42;2.88;;;2.20;;
9970;SDS011;5026;51.494;11.974;2023-07-20T13:35:10;2.55;;;2.35;;
9970;SDS011;5026;51.494;11.974;2023-07-20T13:37:37;1.80;;;1.70;;
9970;SDS011;5026;51.494;11.974;2023-07-20T13:40:06;2.35;;;2.15;;
9970;SDS011;5026;51.494;11.974;2023-07-20T13:42:38;2.10;;;1.52;;
9970;SDS011;5026;51.494;11.974;2023-07-20T13:45:05;1.65;;;1.55;;
9970;SDS011;5026;51.494;11.974;2023-07-20T13:47:33;3.80;;;1.67;;
9970;SDS011;5026;51.494;11.974;2023-07-20T13:50:00;1.45;;;1.35;;
9970;SDS011;5026;51.494;11.974;2023-07-20T13:52:27;1.83;;;1.48;;
9970;SDS011;5026;51.494;11.974;2023-07-20T13:54:54;1.70;;;1.60;;
9970;SDS011;5026;51.494;11.974;2023-07-20T13:57:23;2.63;;;1.80;;
9970;SDS011;5026;51.494;11.974;2023-07-20T13:59:49;2.58;;;1.65;;
9970;SDS011;5026;51.494;11.974;2023-07-20T14:02:16;2.25;;;1.05;;
9970;SDS011;5026;51.494;11.974;2023-07-20T14:04:43;2.20;;;1.05;;
9970;SDS011;5026;51.494;11.974;2023-07-20T14:07:10;0.80;;;0.80;;
9970;SDS011;5026;51.494;11.974;2023-07-20T14:09:38;1.45;;;1.30;;
9970;SDS011;5026;51.494;11.974;2023-07-20T14:12:05;2.25;;;1.27;;
9970;SDS011;5026;51.494;11.974;2023-07-20T14:14:34;0.93;;;0.93;;
9970;SDS011;5026;51.494;11.974;2023-07-20T14:17:01;1.10;;;1.00;;
9970;SDS011;5026;51.494;11.974;2023-07-20T14:19:28;1.02;;;1.02;;
9970;SDS011;5026;51.494;11.974;2023-07-20T14:21:55;1.45;;;0.90;;
9970;SDS011;5026;51.494;11.974;2023-07-20T14:24:24;1.00;;;1.00;;
9970;SDS011;5026;51.494;11.974;2023-07-20T14:26:51;1.42;;;0.90;;
9970;SDS011;5026;51.494;11.974;2023-07-20T14:29:19;0.80;;;0.80;;
9970;SDS011;5026;51.494;11.974;2023-07-20T14:31:48;1.25;;;0.98;;
9970;SDS011;5026;51.494;11.974;2023-07-20T14:34:15;0.80;;;0.80;;
9970;SDS011;5026;51.494;11.974;2023-07-20T14:36:43;1.15;;;1.05;;
9970;SDS011;5026;51.494;11.974;2023-07-20T14:39:10;2.05;;;0.82;;
9970;SDS011;5026;51.494;11.974;2023-07-20T14:41:38;2.45;;;0.80;;
9970;SDS011;5026;51.494;11.974;2023-07-20T14:44:05;0.95;;;0.80;;
9970;SDS011;5026;51.494;11.974;2023-07-20T14:46:31;0.55;;;0.55;;
9970;SDS011;5026;51.494;11.974;2023-07-20T14:49:00;0.60;;;0.60;;
9970;SDS011;5026;51.494;11.974;2023-07-20T14:51:36;1.20;;;0.90;;
9970;SDS011;5026;51.494;11.974;2023-07-20T14:54:08;2.63;;;0.80;;
9970;SDS011;5026;51.494;11.974;2023-07-20T14:56:37;2.63;;;0.60;;
9970;SDS011;5026;51.494;11.974;2023-07-20T14:59:05;1.55;;;0.70;;
9970;SDS011;5026;51.494;11.974;2023-07-20T15:01:39;1.23;;;0.75;;
9970;SDS011;5026;51.494;11.974;2023-07-20T15:04:07;1.67;;;1.10;;
9970;SDS011;5026;51.494;11.974;2023-07-20T15:06:34;0.77;;;0.70;;
9970;SDS011;5026;51.494;11.974;2023-07-20T15:09:02;0.60;;;0.60;;
9970;SDS011;5026;51.494;11.974;2023-07-20T15:11:29;0.57;;;0.57;;
9970;SDS011;5026;51.494;11.974;2023-07-20T15:13:56;1.33;;;0.75;;
9970;SDS011;5026;51.494;11.974;2023-07-20T15:16:23;1.63;;;0.70;;
9970;SDS011;5026;51.494;11.974;2023-07-20T15:18:50;0.98;;;0.60;;
9970;SDS011;5026;51.494;11.974;2023-07-20T15:21:18;0.60;;;0.60;;